Clarendon, New York
Current Conditions -  °F | °C
As of 6:54 PM on Sunday 25 Jan 2015 (Local Time) from KROC Reporting Station
Scattered Clouds Scattered Clouds  
Wind Chill: 15°   Ceiling: Unl
Heat Index: 15°   Visibility: 10mi
Dew Point:   Wind: 3mph
Humidity: 64%   Direction: 20°NNE
Pressure: 30.03"   Gusts: NA
Location:  43.19°N, 78.06°W
Report Text: KROC 252354Z 02003KT 10SM FEW200 SCT250 M09/M15 A3003 RMK AO2 SLP181 60000 T10941150 11061 21094 51025
Loading
Personal Weather Stations






























Interactive Weather Map New forecast layout! Learn more

10-Day Weather Forecast

Advertisements
Track Severe Weather on mobile